createdAt,value
2019-06-01T00:02:08.089Z,97.30
2019-06-01T00:11:57.991Z,97.30
2019-06-01T00:14:25.649Z,97.80
2019-06-01T00:16:53.493Z,98.00
2019-06-01T00:19:23.990Z,97.50
2019-06-01T00:21:52.292Z,97.60
2019-06-01T00:24:20.343Z,97.50
2019-06-01T00:26:48.263Z,97.70
2019-06-01T00:29:15.988Z,97.60
2019-06-01T00:31:45.176Z,97.90
2019-06-01T00:34:13.009Z,97.80
2019-06-01T00:36:41.489Z,97.40
2019-06-01T00:39:09.413Z,97.70
2019-06-01T00:41:37.063Z,97.70
2019-06-01T00:44:04.781Z,97.90
2019-06-01T00:46:32.619Z,98.10
2019-06-01T00:49:00.350Z,98.20
2019-06-01T00:51:27.997Z,98.30
2019-06-01T00:53:55.846Z,98.30
2019-06-01T00:56:23.822Z,98.50
2019-06-01T00:58:51.982Z,98.40
2019-06-01T01:01:19.824Z,98.40
2019-06-01T01:03:48.210Z,98.60
2019-06-01T01:06:16.043Z,98.70
2019-06-01T01:08:44.775Z,98.80
2019-06-01T01:11:12.617Z,99.10
2019-06-01T01:13:40.333Z,98.90
2019-06-01T01:16:08.146Z,99.10
2019-06-01T01:18:36.045Z,99.00
2019-06-01T01:21:03.700Z,99.20
2019-06-01T01:23:31.537Z,99.50
2019-06-01T01:25:59.231Z,99.40
2019-06-01T01:28:26.886Z,99.70
2019-06-01T01:31:08.344Z,99.60
2019-06-01T01:33:24.186Z,99.90
2019-06-01T01:35:52.557Z,99.60
2019-06-01T01:38:21.448Z,99.70
2019-06-01T01:40:50.053Z,99.70
2019-06-01T01:43:17.836Z,99.90
2019-06-01T01:45:45.542Z,99.80
2019-06-01T01:48:13.535Z,99.80
2019-06-01T01:50:41.282Z,99.90
2019-06-01T01:53:09.207Z,99.60
2019-06-01T01:55:36.927Z,99.60
2019-06-01T01:58:04.983Z,99.90
2019-06-01T02:00:37.267Z,99.90
2019-06-01T02:03:05.353Z,99.90
2019-06-01T02:05:33.376Z,99.90
2019-06-01T02:08:01.966Z,99.90
2019-06-01T02:10:30.124Z,99.80
2019-06-01T02:12:57.778Z,99.90
2019-06-01T02:15:25.635Z,99.90
2019-06-01T02:17:53.949Z,99.90
2019-06-01T02:20:21.887Z,99.90
2019-06-01T02:22:49.655Z,99.90
2019-06-01T02:25:17.381Z,99.90
2019-06-01T02:27:45.023Z,99.90
2019-06-01T02:30:14.582Z,99.90
2019-06-01T02:32:42.499Z,99.90
2019-06-01T02:35:10.240Z,99.90
2019-06-01T02:37:38.149Z,99.90
2019-06-01T02:40:06.448Z,99.90
2019-06-01T02:42:34.415Z,99.90
2019-06-01T02:45:03.631Z,99.90
2019-06-01T02:47:31.749Z,99.90
2019-06-01T02:49:59.453Z,99.90
2019-06-01T02:52:27.237Z,99.90
2019-06-01T02:54:55.567Z,99.90
2019-06-01T02:57:23.343Z,99.90
2019-06-01T02:59:51.125Z,99.90
2019-06-01T03:02:18.848Z,99.90
2019-06-01T03:04:46.567Z,99.90
2019-06-01T03:07:14.338Z,99.90
2019-06-01T03:09:42.173Z,99.90
2019-06-01T03:12:12.746Z,99.90
2019-06-01T03:14:42.315Z,99.90
2019-06-01T03:17:12.168Z,99.90
2019-06-01T03:19:40.435Z,99.90
2019-06-01T03:22:10.014Z,99.90
2019-06-01T03:24:37.735Z,99.90
2019-06-01T03:27:06.322Z,99.90
2019-06-01T03:29:35.760Z,99.90
2019-06-01T03:32:25.423Z,99.90
2019-06-01T03:34:33.058Z,99.90
2019-06-01T03:37:01.041Z,99.90
2019-06-01T03:39:30.012Z,99.90
2019-06-01T03:41:57.863Z,99.90
2019-06-01T03:49:20.887Z,99.90
2019-06-01T03:51:48.547Z,99.80
2019-06-01T03:54:16.269Z,99.90
2019-06-01T03:56:44.049Z,99.10
2019-06-01T03:59:11.705Z,99.40
2019-06-01T04:01:39.369Z,98.80
2019-06-01T04:04:07.218Z,99.00
2019-06-01T04:06:35.000Z,98.60
2019-06-01T04:18:54.227Z,97.60
2019-06-01T04:21:22.182Z,97.20
2019-06-01T04:23:50.173Z,97.70
2019-06-01T04:26:17.815Z,97.20
2019-06-01T04:28:45.593Z,97.40
2019-06-01T04:31:13.240Z,97.70
2019-06-01T04:55:49.319Z,95.90
2019-06-01T04:58:17.554Z,96.20
2019-06-01T05:03:13.579Z,94.10
2019-06-01T05:05:41.482Z,94.40
2019-06-01T05:08:09.426Z,93.80
2019-06-01T05:13:05.292Z,93.40
2019-06-01T05:30:18.231Z,92.90
2019-06-01T05:47:31.290Z,92.80
2019-06-01T05:49:58.970Z,91.50
2019-06-01T05:52:26.611Z,91.70
2019-06-01T05:59:49.420Z,91.00
2019-06-01T06:02:17.459Z,91.60
2019-06-01T06:04:45.496Z,91.80
2019-06-01T06:07:13.268Z,90.60
2019-06-01T06:09:40.946Z,90.40
2019-06-01T06:12:08.773Z,90.70
2019-06-01T06:24:26.406Z,85.60
2019-06-01T06:26:54.441Z,85.20
2019-06-01T07:25:57.475Z,76.90
2019-06-01T07:28:26.222Z,76.90
2019-06-01T07:30:54.157Z,77.70
2019-06-01T07:33:22.382Z,74.70
2019-06-01T07:38:17.653Z,74.10
2019-06-01T07:40:45.434Z,74.60
2019-06-01T07:57:57.879Z,69.30
2019-06-01T08:00:26.103Z,70.70
2019-06-01T08:02:55.191Z,67.60
2019-06-01T08:07:51.882Z,72.00
2019-06-01T08:12:46.966Z,64.90
2019-06-01T08:15:15.579Z,65.40
2019-06-01T08:17:43.233Z,63.80
2019-06-01T08:20:10.951Z,64.10
2019-06-01T08:22:38.654Z,63.70
2019-06-01T08:25:06.441Z,64.80
2019-06-01T08:27:34.213Z,65.90
2019-06-01T08:30:02.021Z,67.60
2019-06-01T08:32:30.801Z,66.20
2019-06-01T08:37:27.530Z,68.00
2019-06-01T08:39:59.010Z,69.20
2019-06-01T08:42:25.326Z,63.90
2019-06-01T08:44:53.388Z,64.00
2019-06-01T08:47:21.091Z,64.30
2019-06-01T08:49:48.755Z,62.20
2019-06-01T08:52:16.415Z,63.40
2019-06-01T08:54:44.207Z,63.40
2019-06-01T08:57:11.923Z,62.10
2019-06-01T09:02:07.547Z,64.90
2019-06-01T09:04:35.207Z,61.80
2019-06-01T09:07:03.157Z,62.90
2019-06-01T09:09:31.031Z,63.60
2019-06-01T09:11:58.790Z,63.00
2019-06-01T09:14:27.237Z,61.90
2019-06-01T09:16:55.087Z,63.60
2019-06-01T09:19:22.733Z,64.20
2019-06-01T09:21:50.379Z,61.40
2019-06-01T09:24:18.140Z,64.40
2019-06-01T09:26:45.801Z,63.00
2019-06-01T09:29:13.577Z,63.80
2019-06-01T09:31:41.269Z,65.40
2019-06-01T09:34:09.218Z,64.60
2019-06-01T09:36:36.957Z,65.10
2019-06-01T09:39:06.447Z,63.30
2019-06-01T09:41:34.591Z,59.50
2019-06-01T09:44:02.404Z,60.00
2019-06-01T09:46:32.108Z,57.40
2019-06-01T09:48:59.495Z,57.30
2019-06-01T09:51:27.419Z,58.90
2019-06-01T09:53:55.141Z,59.30
2019-06-01T09:56:22.848Z,57.10
2019-06-01T09:58:50.556Z,57.50
2019-06-01T10:01:18.544Z,56.60
2019-06-01T10:03:46.213Z,61.70
2019-06-01T10:06:14.440Z,57.80
2019-06-01T10:08:42.545Z,56.50
2019-06-01T10:11:10.272Z,57.10
2019-06-01T10:13:38.384Z,57.70
2019-06-01T10:16:06.312Z,56.60
2019-06-01T10:18:35.251Z,54.00
2019-06-01T10:21:03.505Z,54.20
2019-06-01T10:23:32.392Z,53.80
2019-06-01T10:26:00.314Z,54.10
2019-06-01T10:28:27.971Z,53.90
2019-06-01T10:30:55.899Z,53.60
2019-06-01T10:33:23.643Z,53.60
2019-06-01T10:35:51.314Z,55.30
2019-06-01T10:38:19.039Z,56.20
2019-06-01T10:40:47.092Z,54.00
2019-06-01T10:43:14.737Z,54.80
2019-06-01T10:45:42.391Z,54.00
2019-06-01T10:48:10.097Z,52.70
2019-06-01T10:50:38.432Z,52.40
2019-06-01T10:53:06.417Z,53.00
2019-06-01T10:55:34.200Z,53.40
2019-06-01T10:58:01.882Z,51.50
2019-06-01T11:00:39.694Z,51.70
2019-06-01T11:02:59.113Z,52.10
2019-06-01T11:05:26.888Z,51.30
2019-06-01T11:07:54.679Z,52.30
2019-06-01T11:10:22.443Z,49.40
2019-06-01T11:12:50.120Z,50.80
2019-06-01T11:15:17.840Z,49.30
2019-06-01T11:17:45.772Z,49.50
2019-06-01T11:20:13.876Z,50.00
2019-06-01T11:22:41.641Z,48.50
2019-06-01T11:25:09.745Z,50.50
2019-06-01T11:27:37.794Z,53.90
2019-06-01T11:30:09.615Z,48.10
2019-06-01T11:32:39.488Z,49.00
2019-06-01T11:35:07.139Z,50.00
2019-06-01T11:37:35.913Z,51.10
2019-06-01T11:40:05.629Z,51.20
2019-06-01T11:42:35.027Z,50.30
2019-06-01T11:45:03.312Z,51.90
2019-06-01T11:47:30.991Z,52.30
2019-06-01T11:49:59.404Z,51.50
2019-06-01T11:52:27.174Z,47.70
2019-06-01T11:54:54.820Z,50.20
2019-06-01T11:57:22.669Z,48.50
2019-06-01T11:59:50.483Z,49.10
2019-06-01T12:02:18.240Z,47.40
2019-06-01T12:04:46.442Z,48.70
2019-06-01T12:07:17.995Z,49.10
2019-06-01T12:09:43.966Z,48.40
2019-06-01T12:12:11.618Z,49.80
2019-06-01T12:14:40.328Z,48.00
2019-06-01T12:17:08.064Z,47.70
2019-06-01T12:19:36.518Z,48.40
2019-06-01T12:22:04.453Z,50.30
2019-06-01T12:24:32.556Z,50.20
2019-06-01T12:27:00.199Z,49.80
2019-06-01T12:29:27.847Z,47.80
2019-06-01T12:31:55.567Z,47.40
2019-06-01T12:34:23.523Z,46.70
2019-06-01T12:36:51.219Z,46.30
2019-06-01T12:39:19.341Z,46.40
2019-06-01T12:41:47.758Z,46.10
2019-06-01T12:44:15.609Z,45.90
2019-06-01T12:46:43.832Z,46.50
2019-06-01T12:49:11.767Z,47.70
2019-06-01T12:51:40.594Z,49.50
2019-06-01T12:54:08.469Z,47.80
2019-06-01T12:56:36.142Z,45.20
2019-06-01T12:59:03.967Z,46.30
2019-06-01T13:01:32.012Z,44.60
2019-06-01T13:03:59.911Z,44.60
2019-06-01T13:06:27.557Z,44.50
2019-06-01T13:08:55.311Z,44.90
2019-06-01T13:11:23.128Z,43.70
2019-06-01T13:13:51.436Z,44.30
2019-06-01T13:16:19.180Z,46.90
2019-06-01T13:18:47.244Z,45.20
2019-06-01T13:21:14.962Z,43.60
2019-06-01T13:23:43.397Z,44.20
2019-06-01T13:26:11.337Z,44.60
2019-06-01T13:28:39.035Z,45.60
2019-06-01T13:31:06.704Z,46.80
2019-06-01T13:33:34.431Z,46.10
2019-06-01T13:36:02.082Z,45.30
2019-06-01T13:38:29.760Z,46.20
2019-06-01T13:40:57.405Z,45.60
2019-06-01T13:43:25.083Z,45.90
2019-06-01T13:45:53.613Z,43.30
2019-06-01T13:48:21.445Z,45.80
2019-06-01T13:50:49.826Z,47.70
2019-06-01T13:53:17.833Z,44.70
2019-06-01T13:55:46.032Z,40.30
2019-06-01T13:58:13.892Z,41.40
2019-06-01T14:00:41.583Z,44.00
2019-06-01T14:03:09.301Z,44.60
2019-06-01T14:05:36.958Z,41.80
2019-06-01T14:08:04.800Z,41.40
2019-06-01T14:10:32.450Z,43.10
2019-06-01T14:13:00.112Z,42.60
2019-06-01T14:15:27.852Z,44.00
2019-06-01T14:17:56.461Z,42.00
2019-06-01T14:20:24.265Z,45.00
2019-06-01T14:22:52.032Z,46.00
2019-06-01T14:25:19.849Z,42.10
2019-06-01T14:27:48.193Z,43.20
2019-06-01T14:30:16.545Z,40.00
2019-06-01T14:32:44.222Z,41.80
2019-06-01T14:35:11.967Z,41.10
2019-06-01T14:37:39.659Z,40.20
2019-06-01T14:40:07.485Z,40.20
2019-06-01T14:42:35.199Z,35.10
2019-06-01T14:45:03.263Z,32.60
2019-06-01T14:47:30.959Z,32.80
2019-06-01T14:49:58.600Z,34.00
2019-06-01T14:52:26.247Z,34.60
2019-06-01T14:54:53.935Z,32.40
2019-06-01T14:57:21.909Z,34.30
2019-06-01T14:59:50.425Z,32.20
2019-06-01T15:02:18.221Z,36.20
2019-06-01T15:04:46.229Z,32.10
2019-06-01T15:07:13.914Z,32.60
2019-06-01T15:09:41.606Z,29.20
2019-06-01T15:12:09.372Z,31.80
2019-06-01T15:14:37.095Z,35.00
2019-06-01T15:17:04.910Z,32.00
2019-06-01T15:19:32.616Z,29.20
2019-06-01T15:22:00.312Z,30.30
2019-06-01T15:24:27.972Z,32.90
2019-06-01T15:26:56.781Z,34.30
2019-06-01T15:29:24.706Z,34.80
2019-06-01T15:31:53.019Z,37.30
2019-06-01T15:34:20.751Z,33.90
2019-06-01T15:36:48.535Z,35.00
2019-06-01T15:39:24.930Z,34.60
2019-06-01T15:41:46.395Z,33.10
2019-06-01T15:44:14.221Z,32.30
2019-06-01T15:46:41.943Z,31.40
2019-06-01T15:49:09.860Z,33.10
2019-06-01T15:51:37.611Z,35.40
2019-06-01T15:54:05.335Z,35.80
2019-06-01T15:56:33.083Z,39.40
2019-06-01T15:59:01.334Z,41.80
2019-06-01T16:01:29.071Z,44.40
2019-06-01T16:03:57.357Z,43.80
2019-06-01T16:06:25.295Z,41.80
2019-06-01T16:08:53.250Z,43.00
2019-06-01T16:11:21.033Z,42.00
2019-06-01T16:13:48.888Z,43.20
2019-06-01T16:16:16.913Z,43.90
2019-06-01T16:18:44.594Z,44.10
2019-06-01T16:21:12.450Z,37.40
2019-06-01T16:23:49.880Z,38.00
2019-06-01T16:26:16.135Z,39.80
2019-06-01T16:28:39.100Z,39.20
2019-06-01T16:31:06.747Z,38.80
2019-06-01T16:33:34.740Z,40.10
2019-06-01T16:36:03.482Z,39.90
2019-06-01T16:38:31.470Z,40.40
2019-06-01T16:40:59.224Z,42.40
2019-06-01T16:43:27.000Z,42.40
2019-06-01T16:45:55.620Z,41.60
2019-06-01T16:48:23.383Z,42.00
2019-06-01T16:50:51.162Z,40.50
2019-06-01T16:53:18.930Z,39.40
2019-06-01T16:55:46.588Z,37.20
2019-06-01T16:58:14.231Z,35.30
2019-06-01T17:00:42.019Z,35.60
2019-06-01T17:03:11.329Z,35.40
2019-06-01T17:05:39.199Z,36.70
2019-06-01T17:08:07.292Z,35.10
2019-06-01T17:10:35.016Z,33.70
2019-06-01T17:13:03.233Z,34.40
2019-06-01T17:15:31.120Z,33.40
2019-06-01T17:18:02.980Z,34.40
2019-06-01T17:20:38.920Z,33.30
2019-06-01T17:23:24.307Z,32.40
2019-06-01T17:25:36.681Z,33.90
2019-06-01T17:28:05.222Z,34.70
2019-06-01T17:30:33.244Z,35.30
2019-06-01T17:33:02.251Z,36.00
2019-06-01T17:35:30.191Z,36.50
2019-06-01T17:37:58.712Z,36.80
2019-06-01T17:40:36.569Z,35.90
2019-06-01T17:42:55.976Z,39.50
2019-06-01T17:45:23.629Z,38.80
2019-06-01T17:47:51.398Z,38.80
2019-06-01T17:50:22.114Z,40.30
2019-06-01T17:52:49.824Z,40.80
2019-06-01T17:57:44.969Z,44.90
2019-06-01T18:00:12.694Z,45.50
2019-06-01T18:02:40.542Z,47.40
2019-06-01T18:05:08.349Z,50.10
2019-06-01T18:10:06.395Z,50.30
2019-06-01T18:12:34.290Z,52.40
2019-06-01T18:17:30.307Z,54.50
2019-06-01T18:19:57.955Z,54.80
2019-06-01T18:39:39.734Z,60.40
2019-06-01T18:42:08.276Z,60.30
2019-06-01T18:44:36.134Z,61.20
2019-06-01T18:47:03.989Z,61.90
2019-06-01T18:49:31.647Z,62.80
2019-06-01T18:51:59.308Z,66.50
2019-06-01T18:54:27.020Z,67.40
2019-06-01T18:57:09.061Z,67.90
2019-06-01T18:59:24.113Z,68.90
2019-06-01T19:01:51.897Z,71.60
2019-06-01T19:04:19.549Z,72.00
2019-06-01T19:06:47.199Z,73.50
2019-06-01T19:09:15.667Z,74.30
2019-06-01T19:11:43.503Z,75.60
2019-06-01T19:14:11.936Z,77.10
2019-06-01T19:16:39.734Z,78.20
2019-06-01T19:19:08.253Z,78.30
2019-06-01T19:21:36.325Z,79.70
2019-06-01T19:36:21.796Z,85.30
2019-06-01T19:38:49.970Z,86.30
2019-06-01T19:41:17.786Z,86.50
2019-06-01T19:46:13.968Z,87.50
2019-06-01T19:48:41.982Z,87.80
2019-06-01T20:15:45.479Z,84.90
2019-06-01T20:18:13.189Z,84.20
2019-06-01T20:20:41.111Z,84.60
2019-06-01T20:23:09.009Z,85.80
2019-06-01T20:25:36.656Z,86.00
2019-06-01T20:28:04.447Z,86.90
2019-06-01T21:04:59.900Z,90.90
2019-06-01T21:07:27.558Z,91.00
2019-06-01T21:12:42.666Z,91.40
2019-06-01T21:14:52.164Z,91.50
2019-06-01T21:17:20.640Z,91.60
2019-06-01T21:19:48.723Z,91.30
2019-06-01T21:22:16.537Z,91.00
2019-06-01T21:24:44.377Z,91.10
2019-06-01T21:27:12.131Z,91.40
2019-06-01T21:29:40.055Z,91.60
2019-06-01T21:32:07.983Z,92.10
2019-06-01T21:34:35.721Z,92.30
2019-06-01T21:37:03.885Z,92.50
2019-06-01T21:39:31.595Z,92.70
2019-06-01T21:41:59.333Z,93.10
2019-06-01T21:44:26.993Z,93.20
2019-06-01T21:46:54.758Z,93.00
2019-06-01T21:49:24.049Z,93.00
2019-06-01T21:51:53.039Z,93.10
2019-06-01T21:54:22.248Z,93.20
2019-06-01T21:56:50.017Z,93.10
2019-06-01T21:59:18.524Z,93.00
2019-06-01T22:01:46.519Z,93.00
2019-06-01T22:06:46.063Z,93.10
2019-06-01T22:09:11.465Z,93.40
2019-06-01T22:11:39.314Z,93.50
2019-06-01T22:14:06.999Z,93.80
2019-06-01T22:16:34.719Z,93.90
2019-06-01T22:19:02.706Z,93.90
2019-06-01T22:26:26.362Z,94.10
2019-06-01T22:28:54.160Z,94.20
2019-06-01T22:31:22.307Z,94.60
2019-06-01T22:33:50.268Z,94.80
2019-06-01T22:36:18.496Z,95.10
2019-06-01T22:38:46.219Z,95.10
2019-06-01T22:41:14.521Z,95.30
2019-06-01T22:43:46.876Z,95.00
2019-06-01T22:46:11.622Z,95.20
2019-06-01T22:48:39.318Z,95.30
2019-06-01T22:51:07.303Z,95.30
2019-06-01T22:53:34.987Z,95.20
2019-06-01T22:56:02.643Z,95.10
2019-06-01T22:58:31.540Z,95.20
2019-06-01T23:00:59.445Z,95.00
2019-06-01T23:03:28.093Z,95.20
2019-06-01T23:05:56.405Z,95.00
2019-06-01T23:08:25.618Z,95.20
2019-06-01T23:10:53.385Z,95.40
2019-06-01T23:13:21.291Z,95.50
2019-06-01T23:15:48.967Z,95.80
2019-06-01T23:18:16.619Z,96.20
2019-06-01T23:20:44.797Z,96.00
2019-06-01T23:23:12.448Z,95.80
2019-06-01T23:25:40.474Z,95.90
2019-06-01T23:30:35.639Z,95.60
2019-06-01T23:33:03.376Z,95.70
2019-06-01T23:37:58.581Z,96.10
2019-06-01T23:40:26.551Z,96.40
2019-06-01T23:42:54.451Z,95.90
2019-06-01T23:45:22.599Z,96.10
2019-06-01T23:47:50.419Z,96.10
2019-06-01T23:50:18.214Z,96.70
2019-06-01T23:52:45.982Z,96.90
2019-06-01T23:55:13.722Z,96.90
2019-06-01T23:57:41.525Z,97.10
